Terminal Aerodrome Forecast
Issued by NWS

Home | Current Version | Previous Version | Text Only | Print | Product List | Glossary On
Versions: 1 2 3 4 5 6 7 8 9 10 11 12 13 14 15 16 17 18 19 20 21 22 23 24 25 26 27 28
000
FTUS43 KDLH 311700
TAFHIB
TAF
KHIB 311739Z 3118/0118 33010KT P6SM SCT060
      TEMPO 3119/3122 BKN060
     FM010400 00000KT 6SM BR SKC
      TEMPO 0109/0113 3/4SM BR SCT003
     FM011600 33006KT P6SM SCT200=

USA.gov is the U.S. government's official web portal to all federal, state and local government web resources and services.